sensor_id;sensor_type;location;lat;lon;timestamp;P1;durP1;ratioP1;P2;durP2;ratioP2
38312;SDS011;24114;52.260;6.714;2024-01-30T00:01:25;14.50;;;9.77;;
38312;SDS011;24114;52.260;6.714;2024-01-30T00:03:53;11.65;;;9.23;;
38312;SDS011;24114;52.260;6.714;2024-01-30T00:06:21;15.07;;;9.50;;
38312;SDS011;24114;52.260;6.714;2024-01-30T00:08:48;12.93;;;9.50;;
38312;SDS011;24114;52.260;6.714;2024-01-30T00:11:18;12.48;;;8.93;;
38312;SDS011;24114;52.260;6.714;2024-01-30T00:13:45;14.75;;;9.90;;
38312;SDS011;24114;52.260;6.714;2024-01-30T00:16:19;13.13;;;8.77;;
38312;SDS011;24114;52.260;6.714;2024-01-30T00:18:48;13.27;;;9.45;;
38312;SDS011;24114;52.260;6.714;2024-01-30T00:21:15;12.18;;;8.63;;
38312;SDS011;24114;52.260;6.714;2024-01-30T00:23:44;11.88;;;9.18;;
38312;SDS011;24114;52.260;6.714;2024-01-30T00:26:12;12.90;;;9.25;;
38312;SDS011;24114;52.260;6.714;2024-01-30T00:28:43;13.85;;;9.68;;
38312;SDS011;24114;52.260;6.714;2024-01-30T00:31:11;11.57;;;7.97;;
38312;SDS011;24114;52.260;6.714;2024-01-30T00:33:39;11.88;;;8.85;;
38312;SDS011;24114;52.260;6.714;2024-01-30T00:36:08;13.73;;;9.65;;
38312;SDS011;24114;52.260;6.714;2024-01-30T00:38:36;13.55;;;8.57;;
38312;SDS011;24114;52.260;6.714;2024-01-30T00:41:04;15.48;;;10.05;;
38312;SDS011;24114;52.260;6.714;2024-01-30T00:43:32;13.35;;;9.15;;
38312;SDS011;24114;52.260;6.714;2024-01-30T00:46:01;12.82;;;9.15;;
38312;SDS011;24114;52.260;6.714;2024-01-30T00:48:29;12.07;;;9.07;;
38312;SDS011;24114;52.260;6.714;2024-01-30T00:50:57;11.32;;;9.13;;
38312;SDS011;24114;52.260;6.714;2024-01-30T00:53:25;17.60;;;9.23;;
38312;SDS011;24114;52.260;6.714;2024-01-30T00:55:53;13.18;;;9.68;;
38312;SDS011;24114;52.260;6.714;2024-01-30T00:58:21;11.35;;;9.18;;
38312;SDS011;24114;52.260;6.714;2024-01-30T01:00:49;13.77;;;9.70;;
38312;SDS011;24114;52.260;6.714;2024-01-30T01:03:18;14.63;;;9.18;;
38312;SDS011;24114;52.260;6.714;2024-01-30T01:05:46;12.60;;;9.40;;
38312;SDS011;24114;52.260;6.714;2024-01-30T01:08:14;13.13;;;9.27;;
38312;SDS011;24114;52.260;6.714;2024-01-30T01:10:42;13.73;;;9.23;;
38312;SDS011;24114;52.260;6.714;2024-01-30T01:13:10;12.20;;;8.88;;
38312;SDS011;24114;52.260;6.714;2024-01-30T01:15:37;15.25;;;9.40;;
38312;SDS011;24114;52.260;6.714;2024-01-30T01:18:05;12.88;;;9.60;;
38312;SDS011;24114;52.260;6.714;2024-01-30T01:20:35;11.82;;;8.82;;
38312;SDS011;24114;52.260;6.714;2024-01-30T01:23:02;10.95;;;8.40;;
38312;SDS011;24114;52.260;6.714;2024-01-30T01:25:30;14.98;;;9.40;;
38312;SDS011;24114;52.260;6.714;2024-01-30T01:27:58;13.63;;;9.10;;
38312;SDS011;24114;52.260;6.714;2024-01-30T01:30:28;13.23;;;8.85;;
38312;SDS011;24114;52.260;6.714;2024-01-30T01:32:56;12.82;;;9.52;;
38312;SDS011;24114;52.260;6.714;2024-01-30T01:35:27;16.30;;;9.30;;
38312;SDS011;24114;52.260;6.714;2024-01-30T01:37:56;12.98;;;9.07;;
38312;SDS011;24114;52.260;6.714;2024-01-30T01:40:26;12.38;;;8.77;;
38312;SDS011;24114;52.260;6.714;2024-01-30T01:42:55;13.38;;;9.27;;
38312;SDS011;24114;52.260;6.714;2024-01-30T01:45:23;13.10;;;9.30;;
38312;SDS011;24114;52.260;6.714;2024-01-30T01:47:51;12.18;;;9.07;;
38312;SDS011;24114;52.260;6.714;2024-01-30T01:50:20;12.95;;;8.70;;
38312;SDS011;24114;52.260;6.714;2024-01-30T01:52:49;13.75;;;9.23;;
38312;SDS011;24114;52.260;6.714;2024-01-30T01:55:19;15.75;;;9.93;;
38312;SDS011;24114;52.260;6.714;2024-01-30T01:57:50;12.88;;;9.85;;
38312;SDS011;24114;52.260;6.714;2024-01-30T02:00:19;13.10;;;9.93;;
38312;SDS011;24114;52.260;6.714;2024-01-30T02:02:47;11.75;;;9.27;;
38312;SDS011;24114;52.260;6.714;2024-01-30T02:05:15;11.93;;;9.63;;
38312;SDS011;24114;52.260;6.714;2024-01-30T02:07:43;13.45;;;9.88;;
38312;SDS011;24114;52.260;6.714;2024-01-30T02:10:11;15.75;;;10.00;;
38312;SDS011;24114;52.260;6.714;2024-01-30T02:12:40;15.23;;;9.25;;
38312;SDS011;24114;52.260;6.714;2024-01-30T02:15:08;15.38;;;9.80;;
38312;SDS011;24114;52.260;6.714;2024-01-30T02:17:40;13.15;;;9.30;;
38312;SDS011;24114;52.260;6.714;2024-01-30T02:20:09;14.05;;;9.63;;
38312;SDS011;24114;52.260;6.714;2024-01-30T02:22:39;14.80;;;9.77;;
38312;SDS011;24114;52.260;6.714;2024-01-30T02:25:08;13.93;;;9.65;;
38312;SDS011;24114;52.260;6.714;2024-01-30T02:27:36;15.70;;;10.77;;
38312;SDS011;24114;52.260;6.714;2024-01-30T02:30:04;16.58;;;10.35;;
38312;SDS011;24114;52.260;6.714;2024-01-30T02:32:33;16.67;;;10.85;;
38312;SDS011;24114;52.260;6.714;2024-01-30T02:35:01;15.00;;;9.80;;
38312;SDS011;24114;52.260;6.714;2024-01-30T02:37:29;15.68;;;10.77;;
38312;SDS011;24114;52.260;6.714;2024-01-30T02:39:58;14.60;;;9.93;;
38312;SDS011;24114;52.260;6.714;2024-01-30T02:42:26;15.63;;;9.35;;
38312;SDS011;24114;52.260;6.714;2024-01-30T02:44:53;17.17;;;10.88;;
38312;SDS011;24114;52.260;6.714;2024-01-30T02:47:20;11.77;;;10.00;;
38312;SDS011;24114;52.260;6.714;2024-01-30T02:49:48;14.43;;;10.57;;
38312;SDS011;24114;52.260;6.714;2024-01-30T02:52:20;15.52;;;10.77;;
38312;SDS011;24114;52.260;6.714;2024-01-30T02:54:48;14.35;;;10.00;;
38312;SDS011;24114;52.260;6.714;2024-01-30T02:57:17;15.98;;;10.73;;
38312;SDS011;24114;52.260;6.714;2024-01-30T02:59:45;19.30;;;11.07;;
38312;SDS011;24114;52.260;6.714;2024-01-30T03:02:13;17.67;;;10.52;;
38312;SDS011;24114;52.260;6.714;2024-01-30T03:04:41;14.52;;;9.95;;
38312;SDS011;24114;52.260;6.714;2024-01-30T03:07:09;14.68;;;10.55;;
38312;SDS011;24114;52.260;6.714;2024-01-30T03:09:37;15.07;;;10.02;;
38312;SDS011;24114;52.260;6.714;2024-01-30T03:12:05;13.00;;;9.23;;
38312;SDS011;24114;52.260;6.714;2024-01-30T03:14:38;13.77;;;8.75;;
38312;SDS011;24114;52.260;6.714;2024-01-30T03:17:05;15.57;;;9.77;;
38312;SDS011;24114;52.260;6.714;2024-01-30T03:19:34;15.63;;;10.20;;
38312;SDS011;24114;52.260;6.714;2024-01-30T03:22:02;16.20;;;10.52;;
38312;SDS011;24114;52.260;6.714;2024-01-30T03:24:30;14.93;;;10.40;;
38312;SDS011;24114;52.260;6.714;2024-01-30T03:26:57;17.40;;;9.80;;
38312;SDS011;24114;52.260;6.714;2024-01-30T03:29:25;12.23;;;9.43;;
38312;SDS011;24114;52.260;6.714;2024-01-30T03:31:54;14.18;;;9.77;;
38312;SDS011;24114;52.260;6.714;2024-01-30T03:34:22;15.52;;;9.65;;
38312;SDS011;24114;52.260;6.714;2024-01-30T03:36:50;13.88;;;10.50;;
38312;SDS011;24114;52.260;6.714;2024-01-30T03:39:18;14.32;;;10.23;;
38312;SDS011;24114;52.260;6.714;2024-01-30T03:41:46;14.80;;;10.30;;
38312;SDS011;24114;52.260;6.714;2024-01-30T03:44:14;13.30;;;9.57;;
38312;SDS011;24114;52.260;6.714;2024-01-30T03:46:42;13.43;;;9.90;;
38312;SDS011;24114;52.260;6.714;2024-01-30T03:49:11;14.75;;;10.20;;
38312;SDS011;24114;52.260;6.714;2024-01-30T03:51:39;14.23;;;9.45;;
38312;SDS011;24114;52.260;6.714;2024-01-30T03:54:07;14.57;;;10.45;;
38312;SDS011;24114;52.260;6.714;2024-01-30T03:56:34;14.68;;;10.27;;
38312;SDS011;24114;52.260;6.714;2024-01-30T03:59:02;13.90;;;10.43;;
38312;SDS011;24114;52.260;6.714;2024-01-30T04:01:30;14.32;;;10.20;;
38312;SDS011;24114;52.260;6.714;2024-01-30T04:03:58;14.18;;;10.57;;
38312;SDS011;24114;52.260;6.714;2024-01-30T04:06:27;13.88;;;9.93;;
38312;SDS011;24114;52.260;6.714;2024-01-30T04:08:55;14.68;;;10.00;;
38312;SDS011;24114;52.260;6.714;2024-01-30T04:11:23;14.70;;;10.05;;
38312;SDS011;24114;52.260;6.714;2024-01-30T04:13:51;17.10;;;11.05;;
38312;SDS011;24114;52.260;6.714;2024-01-30T04:16:19;14.13;;;10.23;;
38312;SDS011;24114;52.260;6.714;2024-01-30T04:18:48;15.23;;;10.50;;
38312;SDS011;24114;52.260;6.714;2024-01-30T04:21:16;14.02;;;10.02;;
38312;SDS011;24114;52.260;6.714;2024-01-30T04:23:45;16.70;;;10.52;;
38312;SDS011;24114;52.260;6.714;2024-01-30T04:26:13;16.88;;;9.80;;
38312;SDS011;24114;52.260;6.714;2024-01-30T04:28:41;16.30;;;11.20;;
38312;SDS011;24114;52.260;6.714;2024-01-30T04:31:09;15.02;;;10.48;;
38312;SDS011;24114;52.260;6.714;2024-01-30T04:33:37;15.77;;;10.65;;
38312;SDS011;24114;52.260;6.714;2024-01-30T04:36:07;16.90;;;11.63;;
38312;SDS011;24114;52.260;6.714;2024-01-30T04:38:36;18.02;;;11.13;;
38312;SDS011;24114;52.260;6.714;2024-01-30T04:41:05;17.25;;;11.32;;
38312;SDS011;24114;52.260;6.714;2024-01-30T04:43:33;14.93;;;11.05;;
38312;SDS011;24114;52.260;6.714;2024-01-30T04:46:02;15.52;;;10.15;;
38312;SDS011;24114;52.260;6.714;2024-01-30T04:48:30;15.38;;;10.52;;
38312;SDS011;24114;52.260;6.714;2024-01-30T04:50:58;16.25;;;11.40;;
38312;SDS011;24114;52.260;6.714;2024-01-30T04:53:27;18.02;;;11.40;;
38312;SDS011;24114;52.260;6.714;2024-01-30T04:55:55;15.60;;;11.50;;
38312;SDS011;24114;52.260;6.714;2024-01-30T04:58:24;16.63;;;11.40;;
38312;SDS011;24114;52.260;6.714;2024-01-30T05:00:52;16.95;;;11.45;;
38312;SDS011;24114;52.260;6.714;2024-01-30T05:03:20;15.15;;;10.68;;
38312;SDS011;24114;52.260;6.714;2024-01-30T05:05:49;18.35;;;11.82;;
38312;SDS011;24114;52.260;6.714;2024-01-30T05:08:17;17.33;;;10.85;;
38312;SDS011;24114;52.260;6.714;2024-01-30T05:10:44;14.80;;;10.98;;
38312;SDS011;24114;52.260;6.714;2024-01-30T05:13:12;18.00;;;11.45;;
38312;SDS011;24114;52.260;6.714;2024-01-30T05:15:42;16.88;;;11.57;;
38312;SDS011;24114;52.260;6.714;2024-01-30T05:18:09;15.23;;;10.40;;
38312;SDS011;24114;52.260;6.714;2024-01-30T05:20:37;14.68;;;10.18;;
38312;SDS011;24114;52.260;6.714;2024-01-30T05:23:05;18.63;;;12.05;;
38312;SDS011;24114;52.260;6.714;2024-01-30T05:25:33;16.45;;;11.27;;
38312;SDS011;24114;52.260;6.714;2024-01-30T05:28:01;15.63;;;10.90;;
38312;SDS011;24114;52.260;6.714;2024-01-30T05:30:29;16.10;;;11.77;;
38312;SDS011;24114;52.260;6.714;2024-01-30T05:32:58;18.20;;;11.40;;
38312;SDS011;24114;52.260;6.714;2024-01-30T05:35:26;15.68;;;11.10;;
38312;SDS011;24114;52.260;6.714;2024-01-30T05:37:54;15.23;;;10.07;;
38312;SDS011;24114;52.260;6.714;2024-01-30T05:40:22;16.25;;;10.93;;
38312;SDS011;24114;52.260;6.714;2024-01-30T05:42:50;15.80;;;10.30;;
38312;SDS011;24114;52.260;6.714;2024-01-30T05:45:18;16.52;;;11.07;;
38312;SDS011;24114;52.260;6.714;2024-01-30T05:47:46;16.17;;;10.77;;
38312;SDS011;24114;52.260;6.714;2024-01-30T05:50:15;16.13;;;10.73;;
38312;SDS011;24114;52.260;6.714;2024-01-30T05:52:43;14.82;;;10.43;;
38312;SDS011;24114;52.260;6.714;2024-01-30T05:55:11;15.50;;;11.07;;
38312;SDS011;24114;52.260;6.714;2024-01-30T05:57:39;15.85;;;10.75;;
38312;SDS011;24114;52.260;6.714;2024-01-30T06:00:07;15.52;;;10.02;;
38312;SDS011;24114;52.260;6.714;2024-01-30T06:02:35;13.98;;;10.68;;
38312;SDS011;24114;52.260;6.714;2024-01-30T06:05:03;15.65;;;10.93;;
38312;SDS011;24114;52.260;6.714;2024-01-30T06:07:33;14.15;;;10.15;;
38312;SDS011;24114;52.260;6.714;2024-01-30T06:10:03;15.20;;;10.10;;
38312;SDS011;24114;52.260;6.714;2024-01-30T06:12:31;16.73;;;10.32;;
38312;SDS011;24114;52.260;6.714;2024-01-30T06:14:59;16.33;;;10.38;;
38312;SDS011;24114;52.260;6.714;2024-01-30T06:17:27;13.63;;;10.63;;
38312;SDS011;24114;52.260;6.714;2024-01-30T06:19:55;14.13;;;10.38;;
38312;SDS011;24114;52.260;6.714;2024-01-30T06:22:23;17.10;;;11.15;;
38312;SDS011;24114;52.260;6.714;2024-01-30T06:24:52;17.02;;;10.75;;
38312;SDS011;24114;52.260;6.714;2024-01-30T06:27:20;15.20;;;10.95;;
38312;SDS011;24114;52.260;6.714;2024-01-30T06:29:48;15.88;;;10.80;;
38312;SDS011;24114;52.260;6.714;2024-01-30T06:32:16;15.10;;;9.95;;
38312;SDS011;24114;52.260;6.714;2024-01-30T06:34:44;12.63;;;9.70;;
38312;SDS011;24114;52.260;6.714;2024-01-30T06:37:12;14.98;;;10.32;;
38312;SDS011;24114;52.260;6.714;2024-01-30T06:39:39;15.13;;;10.38;;
38312;SDS011;24114;52.260;6.714;2024-01-30T06:42:09;16.33;;;9.75;;
38312;SDS011;24114;52.260;6.714;2024-01-30T06:44:37;15.90;;;9.38;;
38312;SDS011;24114;52.260;6.714;2024-01-30T06:47:05;16.52;;;10.02;;
38312;SDS011;24114;52.260;6.714;2024-01-30T06:49:33;14.57;;;9.75;;
38312;SDS011;24114;52.260;6.714;2024-01-30T06:52:01;13.63;;;9.80;;
38312;SDS011;24114;52.260;6.714;2024-01-30T06:54:29;14.15;;;9.88;;
38312;SDS011;24114;52.260;6.714;2024-01-30T06:56:56;13.02;;;9.07;;
38312;SDS011;24114;52.260;6.714;2024-01-30T06:59:25;15.75;;;10.60;;
38312;SDS011;24114;52.260;6.714;2024-01-30T07:01:53;11.77;;;9.30;;
38312;SDS011;24114;52.260;6.714;2024-01-30T07:04:21;11.85;;;8.98;;
38312;SDS011;24114;52.260;6.714;2024-01-30T07:06:49;15.60;;;10.00;;
38312;SDS011;24114;52.260;6.714;2024-01-30T07:09:19;12.73;;;9.30;;
38312;SDS011;24114;52.260;6.714;2024-01-30T07:11:47;13.82;;;10.48;;
38312;SDS011;24114;52.260;6.714;2024-01-30T07:15:05;12.77;;;9.55;;
38312;SDS011;24114;52.260;6.714;2024-01-30T07:17:35;14.30;;;10.27;;
38312;SDS011;24114;52.260;6.714;2024-01-30T07:20:03;14.27;;;9.52;;
38312;SDS011;24114;52.260;6.714;2024-01-30T07:22:44;17.20;;;10.88;;
38312;SDS011;24114;52.260;6.714;2024-01-30T07:25:11;13.25;;;10.93;;
38312;SDS011;24114;52.260;6.714;2024-01-30T07:27:39;18.17;;;10.40;;
38312;SDS011;24114;52.260;6.714;2024-01-30T07:30:07;13.60;;;8.55;;
38312;SDS011;24114;52.260;6.714;2024-01-30T07:32:35;14.85;;;9.63;;
38312;SDS011;24114;52.260;6.714;2024-01-30T07:35:03;13.85;;;10.38;;
38312;SDS011;24114;52.260;6.714;2024-01-30T07:37:34;15.98;;;11.18;;
38312;SDS011;24114;52.260;6.714;2024-01-30T07:40:05;14.82;;;9.13;;
38312;SDS011;24114;52.260;6.714;2024-01-30T07:42:33;12.38;;;9.23;;
38312;SDS011;24114;52.260;6.714;2024-01-30T07:45:01;16.02;;;9.57;;
38312;SDS011;24114;52.260;6.714;2024-01-30T07:47:29;10.65;;;8.50;;
38312;SDS011;24114;52.260;6.714;2024-01-30T07:49:57;11.93;;;8.13;;
38312;SDS011;24114;52.260;6.714;2024-01-30T07:52:25;12.20;;;8.82;;
38312;SDS011;24114;52.260;6.714;2024-01-30T07:54:53;10.95;;;8.68;;
38312;SDS011;24114;52.260;6.714;2024-01-30T07:57:23;12.30;;;8.82;;
38312;SDS011;24114;52.260;6.714;2024-01-30T07:59:51;10.82;;;8.07;;
38312;SDS011;24114;52.260;6.714;2024-01-30T08:02:19;11.35;;;8.70;;
38312;SDS011;24114;52.260;6.714;2024-01-30T08:04:47;13.20;;;9.43;;
38312;SDS011;24114;52.260;6.714;2024-01-30T08:07:16;11.20;;;8.07;;
38312;SDS011;24114;52.260;6.714;2024-01-30T08:09:44;12.25;;;9.10;;
38312;SDS011;24114;52.260;6.714;2024-01-30T08:12:12;10.38;;;8.57;;
38312;SDS011;24114;52.260;6.714;2024-01-30T08:14:42;11.43;;;8.45;;
38312;SDS011;24114;52.260;6.714;2024-01-30T08:17:09;22.02;;;14.15;;
38312;SDS011;24114;52.260;6.714;2024-01-30T08:19:37;14.95;;;11.10;;
38312;SDS011;24114;52.260;6.714;2024-01-30T08:22:05;11.27;;;9.30;;
38312;SDS011;24114;52.260;6.714;2024-01-30T08:24:33;12.70;;;8.48;;
38312;SDS011;24114;52.260;6.714;2024-01-30T08:27:01;13.73;;;9.70;;
38312;SDS011;24114;52.260;6.714;2024-01-30T08:29:31;20.75;;;13.73;;
38312;SDS011;24114;52.260;6.714;2024-01-30T08:32:00;11.93;;;8.10;;
38312;SDS011;24114;52.260;6.714;2024-01-30T08:34:28;14.07;;;8.07;;
38312;SDS011;24114;52.260;6.714;2024-01-30T08:36:56;11.70;;;8.65;;
38312;SDS011;24114;52.260;6.714;2024-01-30T08:39:24;11.30;;;8.02;;
38312;SDS011;24114;52.260;6.714;2024-01-30T08:41:52;10.90;;;7.93;;
38312;SDS011;24114;52.260;6.714;2024-01-30T08:44:20;12.85;;;8.55;;
38312;SDS011;24114;52.260;6.714;2024-01-30T08:46:48;12.70;;;8.43;;
38312;SDS011;24114;52.260;6.714;2024-01-30T08:49:19;9.48;;;7.22;;
38312;SDS011;24114;52.260;6.714;2024-01-30T08:51:47;12.30;;;8.18;;
38312;SDS011;24114;52.260;6.714;2024-01-30T08:54:16;10.82;;;7.47;;
38312;SDS011;24114;52.260;6.714;2024-01-30T08:56:44;10.25;;;7.70;;
38312;SDS011;24114;52.260;6.714;2024-01-30T08:59:12;11.98;;;8.05;;
38312;SDS011;24114;52.260;6.714;2024-01-30T09:01:40;11.43;;;7.38;;
38312;SDS011;24114;52.260;6.714;2024-01-30T09:04:22;11.80;;;7.25;;
38312;SDS011;24114;52.260;6.714;2024-01-30T09:06:51;11.68;;;6.95;;
38312;SDS011;24114;52.260;6.714;2024-01-30T09:09:19;10.27;;;7.25;;
38312;SDS011;24114;52.260;6.714;2024-01-30T09:11:47;11.93;;;7.22;;
38312;SDS011;24114;52.260;6.714;2024-01-30T09:14:15;13.27;;;7.70;;
38312;SDS011;24114;52.260;6.714;2024-01-30T09:16:43;9.07;;;7.13;;
38312;SDS011;24114;52.260;6.714;2024-01-30T09:19:10;10.93;;;7.45;;
38312;SDS011;24114;52.260;6.714;2024-01-30T09:21:40;9.73;;;7.32;;
38312;SDS011;24114;52.260;6.714;2024-01-30T09:24:08;8.27;;;7.15;;
38312;SDS011;24114;52.260;6.714;2024-01-30T09:26:35;10.85;;;7.80;;
38312;SDS011;24114;52.260;6.714;2024-01-30T09:29:03;12.60;;;8.65;;
38312;SDS011;24114;52.260;6.714;2024-01-30T09:31:31;13.95;;;12.48;;
38312;SDS011;24114;52.260;6.714;2024-01-30T09:33:59;10.25;;;7.63;;
38312;SDS011;24114;52.260;6.714;2024-01-30T09:36:27;12.70;;;9.63;;
38312;SDS011;24114;52.260;6.714;2024-01-30T09:38:56;9.75;;;7.18;;
38312;SDS011;24114;52.260;6.714;2024-01-30T09:41:24;12.02;;;7.93;;
38312;SDS011;24114;52.260;6.714;2024-01-30T09:43:53;12.38;;;7.03;;
38312;SDS011;24114;52.260;6.714;2024-01-30T09:46:22;8.43;;;7.15;;
38312;SDS011;24114;52.260;6.714;2024-01-30T09:48:54;8.05;;;6.65;;
38312;SDS011;24114;52.260;6.714;2024-01-30T09:51:24;11.15;;;8.07;;
38312;SDS011;24114;52.260;6.714;2024-01-30T09:53:52;12.60;;;9.05;;
38312;SDS011;24114;52.260;6.714;2024-01-30T09:56:22;13.50;;;8.90;;
38312;SDS011;24114;52.260;6.714;2024-01-30T09:58:50;9.30;;;7.72;;
38312;SDS011;24114;52.260;6.714;2024-01-30T10:01:18;9.70;;;6.80;;
38312;SDS011;24114;52.260;6.714;2024-01-30T10:03:46;10.43;;;7.95;;
38312;SDS011;24114;52.260;6.714;2024-01-30T10:06:14;10.45;;;7.20;;
38312;SDS011;24114;52.260;6.714;2024-01-30T10:08:45;11.95;;;7.57;;
38312;SDS011;24114;52.260;6.714;2024-01-30T10:11:12;9.48;;;7.53;;
38312;SDS011;24114;52.260;6.714;2024-01-30T10:13:42;9.90;;;7.50;;
38312;SDS011;24114;52.260;6.714;2024-01-30T10:16:09;9.60;;;7.43;;
38312;SDS011;24114;52.260;6.714;2024-01-30T10:18:38;10.55;;;7.22;;
38312;SDS011;24114;52.260;6.714;2024-01-30T10:21:09;10.45;;;7.50;;
38312;SDS011;24114;52.260;6.714;2024-01-30T10:23:38;10.35;;;7.28;;
38312;SDS011;24114;52.260;6.714;2024-01-30T10:26:07;10.60;;;7.90;;
38312;SDS011;24114;52.260;6.714;2024-01-30T10:28:35;9.77;;;7.32;;
38312;SDS011;24114;52.260;6.714;2024-01-30T10:31:04;10.55;;;8.23;;
38312;SDS011;24114;52.260;6.714;2024-01-30T10:33:32;11.30;;;7.88;;
38312;SDS011;24114;52.260;6.714;2024-01-30T10:36:02;10.73;;;8.32;;
38312;SDS011;24114;52.260;6.714;2024-01-30T10:38:31;11.77;;;9.63;;
38312;SDS011;24114;52.260;6.714;2024-01-30T10:41:00;11.80;;;8.68;;
38312;SDS011;24114;52.260;6.714;2024-01-30T10:43:30;10.30;;;7.38;;
38312;SDS011;24114;52.260;6.714;2024-01-30T10:46:02;10.38;;;7.50;;
38312;SDS011;24114;52.260;6.714;2024-01-30T10:48:39;12.93;;;8.18;;
38312;SDS011;24114;52.260;6.714;2024-01-30T10:51:11;12.77;;;8.05;;
38312;SDS011;24114;52.260;6.714;2024-01-30T10:53:39;11.00;;;7.88;;
38312;SDS011;24114;52.260;6.714;2024-01-30T10:56:08;13.45;;;8.13;;
38312;SDS011;24114;52.260;6.714;2024-01-30T10:58:38;12.57;;;8.00;;
38312;SDS011;24114;52.260;6.714;2024-01-30T11:01:07;14.27;;;8.53;;
38312;SDS011;24114;52.260;6.714;2024-01-30T11:03:36;11.77;;;8.43;;
38312;SDS011;24114;52.260;6.714;2024-01-30T11:06:04;12.10;;;8.05;;
38312;SDS011;24114;52.260;6.714;2024-01-30T11:08:32;11.50;;;8.07;;
38312;SDS011;24114;52.260;6.714;2024-01-30T11:11:00;12.63;;;8.10;;
38312;SDS011;24114;52.260;6.714;2024-01-30T11:13:29;11.32;;;8.00;;
38312;SDS011;24114;52.260;6.714;2024-01-30T11:16:00;11.00;;;7.85;;
38312;SDS011;24114;52.260;6.714;2024-01-30T11:18:30;13.80;;;8.85;;
38312;SDS011;24114;52.260;6.714;2024-01-30T11:20:58;12.20;;;8.43;;
38312;SDS011;24114;52.260;6.714;2024-01-30T11:23:28;11.85;;;8.38;;
38312;SDS011;24114;52.260;6.714;2024-01-30T11:25:56;11.27;;;9.07;;
38312;SDS011;24114;52.260;6.714;2024-01-30T11:28:24;12.30;;;8.77;;
38312;SDS011;24114;52.260;6.714;2024-01-30T11:31:03;12.63;;;9.35;;
38312;SDS011;24114;52.260;6.714;2024-01-30T11:33:33;11.68;;;8.02;;
38312;SDS011;24114;52.260;6.714;2024-01-30T11:36:01;11.25;;;8.60;;
38312;SDS011;24114;52.260;6.714;2024-01-30T11:38:29;12.25;;;8.25;;
38312;SDS011;24114;52.260;6.714;2024-01-30T11:40:57;10.85;;;8.32;;
38312;SDS011;24114;52.260;6.714;2024-01-30T11:43:25;11.98;;;8.30;;
38312;SDS011;24114;52.260;6.714;2024-01-30T11:45:53;13.13;;;8.45;;
38312;SDS011;24114;52.260;6.714;2024-01-30T11:48:20;13.77;;;7.75;;
38312;SDS011;24114;52.260;6.714;2024-01-30T11:50:50;12.60;;;8.00;;
38312;SDS011;24114;52.260;6.714;2024-01-30T11:53:18;9.95;;;7.65;;
38312;SDS011;24114;52.260;6.714;2024-01-30T11:55:49;10.85;;;7.57;;
38312;SDS011;24114;52.260;6.714;2024-01-30T11:58:17;12.40;;;8.13;;
38312;SDS011;24114;52.260;6.714;2024-01-30T12:00:52;11.45;;;7.63;;
38312;SDS011;24114;52.260;6.714;2024-01-30T12:03:20;12.02;;;8.10;;
38312;SDS011;24114;52.260;6.714;2024-01-30T12:05:55;9.38;;;7.60;;
38312;SDS011;24114;52.260;6.714;2024-01-30T12:08:25;10.52;;;8.13;;
38312;SDS011;24114;52.260;6.714;2024-01-30T12:10:56;13.35;;;8.70;;
38312;SDS011;24114;52.260;6.714;2024-01-30T12:13:27;11.20;;;8.48;;
38312;SDS011;24114;52.260;6.714;2024-01-30T12:15:59;12.57;;;7.75;;
38312;SDS011;24114;52.260;6.714;2024-01-30T12:18:27;13.23;;;8.15;;
38312;SDS011;24114;52.260;6.714;2024-01-30T12:20:59;11.52;;;9.35;;
38312;SDS011;24114;52.260;6.714;2024-01-30T12:23:27;12.73;;;9.07;;
38312;SDS011;24114;52.260;6.714;2024-01-30T12:25:56;12.63;;;9.45;;
38312;SDS011;24114;52.260;6.714;2024-01-30T12:28:24;15.00;;;10.02;;
38312;SDS011;24114;52.260;6.714;2024-01-30T12:30:54;14.75;;;9.68;;
38312;SDS011;24114;52.260;6.714;2024-01-30T12:33:26;13.35;;;9.68;;
38312;SDS011;24114;52.260;6.714;2024-01-30T12:35:54;15.02;;;8.77;;
38312;SDS011;24114;52.260;6.714;2024-01-30T12:38:30;11.93;;;9.02;;
38312;SDS011;24114;52.260;6.714;2024-01-30T12:40:58;13.90;;;8.90;;
38312;SDS011;24114;52.260;6.714;2024-01-30T12:43:26;14.10;;;9.05;;
38312;SDS011;24114;52.260;6.714;2024-01-30T12:46:04;12.32;;;7.60;;
38312;SDS011;24114;52.260;6.714;2024-01-30T12:48:32;11.45;;;8.50;;
38312;SDS011;24114;52.260;6.714;2024-01-30T12:51:01;9.60;;;7.30;;
38312;SDS011;24114;52.260;6.714;2024-01-30T12:53:28;13.48;;;8.00;;
38312;SDS011;24114;52.260;6.714;2024-01-30T12:55:58;15.50;;;11.85;;
38312;SDS011;24114;52.260;6.714;2024-01-30T12:58:26;13.15;;;7.88;;
38312;SDS011;24114;52.260;6.714;2024-01-30T13:00:54;12.90;;;7.88;;
38312;SDS011;24114;52.260;6.714;2024-01-30T13:03:22;11.63;;;7.68;;
38312;SDS011;24114;52.260;6.714;2024-01-30T13:05:50;9.35;;;6.28;;
38312;SDS011;24114;52.260;6.714;2024-01-30T13:08:18;10.32;;;7.28;;
38312;SDS011;24114;52.260;6.714;2024-01-30T13:10:47;11.65;;;7.82;;
38312;SDS011;24114;52.260;6.714;2024-01-30T13:13:16;12.95;;;9.68;;
38312;SDS011;24114;52.260;6.714;2024-01-30T13:15:46;11.65;;;8.52;;
38312;SDS011;24114;52.260;6.714;2024-01-30T13:18:15;10.50;;;7.43;;
38312;SDS011;24114;52.260;6.714;2024-01-30T13:20:43;18.00;;;12.85;;
38312;SDS011;24114;52.260;6.714;2024-01-30T13:23:10;10.85;;;7.85;;
38312;SDS011;24114;52.260;6.714;2024-01-30T13:25:38;9.07;;;6.43;;
38312;SDS011;24114;52.260;6.714;2024-01-30T13:28:07;11.15;;;9.23;;
38312;SDS011;24114;52.260;6.714;2024-01-30T13:30:35;8.75;;;7.45;;
38312;SDS011;24114;52.260;6.714;2024-01-30T13:33:04;11.38;;;7.43;;
38312;SDS011;24114;52.260;6.714;2024-01-30T13:35:32;10.10;;;7.13;;
38312;SDS011;24114;52.260;6.714;2024-01-30T13:37:59;8.95;;;6.80;;
38312;SDS011;24114;52.260;6.714;2024-01-30T13:40:28;9.82;;;6.25;;
38312;SDS011;24114;52.260;6.714;2024-01-30T13:42:55;6.45;;;5.22;;
38312;SDS011;24114;52.260;6.714;2024-01-30T13:45:26;9.23;;;6.35;;
38312;SDS011;24114;52.260;6.714;2024-01-30T13:47:53;9.27;;;6.18;;
38312;SDS011;24114;52.260;6.714;2024-01-30T13:50:22;8.10;;;5.18;;
38312;SDS011;24114;52.260;6.714;2024-01-30T13:52:49;7.07;;;4.47;;
38312;SDS011;24114;52.260;6.714;2024-01-30T13:55:18;5.72;;;4.55;;
38312;SDS011;24114;52.260;6.714;2024-01-30T13:57:46;5.32;;;3.72;;
38312;SDS011;24114;52.260;6.714;2024-01-30T14:00:17;4.95;;;2.72;;
38312;SDS011;24114;52.260;6.714;2024-01-30T14:02:46;6.20;;;2.80;;
38312;SDS011;24114;52.260;6.714;2024-01-30T14:05:14;4.07;;;2.58;;
38312;SDS011;24114;52.260;6.714;2024-01-30T14:07:42;4.07;;;2.63;;
38312;SDS011;24114;52.260;6.714;2024-01-30T14:10:10;5.97;;;2.10;;
38312;SDS011;24114;52.260;6.714;2024-01-30T14:12:41;3.15;;;1.58;;
38312;SDS011;24114;52.260;6.714;2024-01-30T14:15:09;2.72;;;1.33;;
38312;SDS011;24114;52.260;6.714;2024-01-30T14:17:54;3.05;;;0.93;;
38312;SDS011;24114;52.260;6.714;2024-01-30T14:20:24;2.67;;;0.90;;
38312;SDS011;24114;52.260;6.714;2024-01-30T14:22:52;3.03;;;0.65;;
38312;SDS011;24114;52.260;6.714;2024-01-30T14:25:22;1.73;;;0.50;;
38312;SDS011;24114;52.260;6.714;2024-01-30T14:27:49;5.70;;;1.13;;
38312;SDS011;24114;52.260;6.714;2024-01-30T14:30:18;1.70;;;0.40;;
38312;SDS011;24114;52.260;6.714;2024-01-30T14:32:45;2.28;;;0.65;;
38312;SDS011;24114;52.260;6.714;2024-01-30T14:35:15;3.28;;;0.22;;
38312;SDS011;24114;52.260;6.714;2024-01-30T14:37:43;0.47;;;0.30;;
38312;SDS011;24114;52.260;6.714;2024-01-30T14:40:11;1.60;;;0.25;;
38312;SDS011;24114;52.260;6.714;2024-01-30T14:42:39;0.77;;;0.35;;